BIENTÔT MET'MAP
version 2.0 !

Prévue avant fin octobre,
la nouvelle version sera
plus belle, plus complète
et hébergée sur un serveur
3 fois plus puissant...
et toujours gratuite !


Pas compatible ?
Essayez la version Mobile !

SE CONNECTER : | S'inscrire | Disclaimer | Découvrir Orbifly |
Code OACI :

TAF - LTBQ Cengiz Topel Airport - 02 Jun 2020 14:27 UTC - Data Source NOAA   


- Altitude de l'aérodrome : 182 ft
- Code IATA : KCO
- Pas de NOTAMs connus.


LTBQ - Cengiz Topel Airport

Dernier METAR connu : 2015/08/11 07:50 LTBQ 110750Z VRB03KT 8000 SCT030 SCT090 27/21 Q1011 NOSIG
TAF TAF LTBQ
Valide du 02 à 12h jusqu'au 02 à 21h UTC


021040Z 0212/0221 VRB02KT 8000 SCT030 BKN090
TEMPO 0212/0216 36012G25KT 4000 -TSRA BR FEW020CB BKN025
BECMG 0216/0219 NSC

Source NOAA


MET'MAP, la Météo Aéronautique d'un coup d'oeil ! - Copyright ORBIFLY Décembre 2007

Développement & Programmation : Alexandra Zaïnal
Co-Développement : Marc-Olivier Méhu
Soutien technique & logistique : Manuel Goepfert
Conception & Financement : Baudouin d'Aumeries